createdAt,value
2018-05-07T00:02:23.063Z,2.93
2018-05-07T00:04:50.552Z,3.33
2018-05-07T00:07:18.099Z,3.20
2018-05-07T00:09:45.617Z,2.80
2018-05-07T00:12:13.124Z,3.30
2018-05-07T00:14:40.615Z,3.50
2018-05-07T00:17:08.889Z,3.27
2018-05-07T00:19:37.183Z,3.13
2018-05-07T00:22:05.444Z,3.37
2018-05-07T00:24:33.701Z,3.13
2018-05-07T00:27:01.277Z,3.20
2018-05-07T00:29:28.849Z,3.10
2018-05-07T00:31:56.356Z,2.87
2018-05-07T00:34:23.858Z,4.10
2018-05-07T00:36:51.369Z,3.20
2018-05-07T00:39:18.866Z,3.43
2018-05-07T00:41:47.140Z,3.67
2018-05-07T00:44:15.429Z,3.03
2018-05-07T00:46:43.312Z,3.30
2018-05-07T00:49:10.808Z,3.10
2018-05-07T00:51:38.316Z,3.27
2018-05-07T00:54:05.812Z,3.57
2018-05-07T00:56:33.321Z,3.20
2018-05-07T00:59:01.577Z,3.97
2018-05-07T01:01:29.075Z,3.17
2018-05-07T01:03:56.623Z,3.07
2018-05-07T01:06:24.139Z,3.53
2018-05-07T01:08:52.397Z,3.00
2018-05-07T01:11:19.891Z,3.87
2018-05-07T01:13:48.184Z,3.20
2018-05-07T01:16:15.740Z,2.80
2018-05-07T01:18:44.008Z,3.07
2018-05-07T01:21:12.267Z,3.80
2018-05-07T01:23:39.857Z,3.20
2018-05-07T01:26:07.344Z,3.40
2018-05-07T01:28:34.868Z,3.83
2018-05-07T01:31:03.116Z,3.20
2018-05-07T01:33:30.624Z,3.30
2018-05-07T01:35:58.169Z,3.43
2018-05-07T01:38:25.677Z,3.20
2018-05-07T01:40:53.164Z,3.43
2018-05-07T01:43:21.437Z,3.20
2018-05-07T01:45:49.693Z,3.50
2018-05-07T01:48:17.200Z,3.33
2018-05-07T01:50:44.697Z,3.60
2018-05-07T01:53:12.209Z,3.10
2018-05-07T01:55:39.764Z,3.37
2018-05-07T01:58:07.275Z,3.23
2018-05-07T02:00:34.769Z,3.80
2018-05-07T02:03:03.043Z,3.60
2018-05-07T02:05:31.333Z,3.73
2018-05-07T02:07:58.840Z,4.30
2018-05-07T02:10:26.451Z,3.73
2018-05-07T02:12:53.960Z,3.77
2018-05-07T02:15:21.468Z,3.60
2018-05-07T02:17:48.975Z,3.40
2018-05-07T02:20:16.464Z,3.53
2018-05-07T02:22:44.761Z,5.10
2018-05-07T02:25:12.257Z,3.57
2018-05-07T02:27:39.878Z,3.77
2018-05-07T02:30:07.364Z,4.20
2018-05-07T02:32:34.873Z,3.50
2018-05-07T02:35:03.133Z,3.97
2018-05-07T02:37:30.663Z,3.97
2018-05-07T02:39:58.188Z,4.67
2018-05-07T02:42:25.696Z,3.90
2018-05-07T02:44:53.192Z,4.70
2018-05-07T02:47:20.762Z,5.10
2018-05-07T02:49:48.257Z,4.27
2018-05-07T02:52:15.765Z,4.17
2018-05-07T02:54:44.025Z,4.37
2018-05-07T02:57:11.609Z,4.40
2018-05-07T02:59:39.096Z,3.90
2018-05-07T03:02:06.624Z,4.10
2018-05-07T03:04:34.408Z,3.70
2018-05-07T03:07:01.900Z,4.10
2018-05-07T03:09:29.413Z,4.13
2018-05-07T03:11:56.968Z,3.60
2018-05-07T03:14:24.477Z,3.93
2018-05-07T03:16:51.977Z,4.10
2018-05-07T03:19:19.487Z,3.87
2018-05-07T03:21:46.980Z,4.10
2018-05-07T03:24:15.248Z,4.17
2018-05-07T03:26:42.727Z,4.50
2018-05-07T03:29:10.236Z,4.13
2018-05-07T03:31:37.729Z,4.17
2018-05-07T03:34:05.992Z,4.30
2018-05-07T03:36:33.481Z,4.33
2018-05-07T03:39:00.988Z,4.60
2018-05-07T03:41:28.471Z,4.20
2018-05-07T03:43:56.745Z,4.47
2018-05-07T03:46:24.241Z,4.70
2018-05-07T03:48:51.758Z,4.30
2018-05-07T03:51:20.016Z,3.70
2018-05-07T03:53:47.520Z,4.60
2018-05-07T03:56:15.025Z,3.90
2018-05-07T03:58:42.536Z,4.17
2018-05-07T04:01:10.020Z,4.60
2018-05-07T04:03:37.533Z,4.33
2018-05-07T04:06:05.861Z,4.30
2018-05-07T04:08:33.368Z,4.27
2018-05-07T04:11:01.620Z,5.10
2018-05-07T04:13:29.120Z,4.33
2018-05-07T04:15:56.614Z,4.60
2018-05-07T04:18:35.756Z,4.70
2018-05-07T04:21:12.887Z,4.20
2018-05-07T04:23:52.203Z,4.83
2018-05-07T04:26:19.687Z,4.13
2018-05-07T04:28:47.202Z,5.13
2018-05-07T04:31:14.693Z,4.50
2018-05-07T04:33:42.965Z,5.40
2018-05-07T04:36:10.470Z,4.83
2018-05-07T04:38:37.972Z,4.53
2018-05-07T04:41:06.225Z,5.00
2018-05-07T04:43:33.815Z,4.40
2018-05-07T04:46:01.243Z,5.63
2018-05-07T04:48:28.749Z,4.50
2018-05-07T04:50:56.237Z,4.80
2018-05-07T04:53:23.755Z,5.43
2018-05-07T04:55:51.312Z,4.70
2018-05-07T04:58:18.800Z,4.40
2018-05-07T05:00:46.324Z,4.97
2018-05-07T05:03:14.581Z,4.87
2018-05-07T05:05:42.856Z,4.80
2018-05-07T05:08:10.352Z,4.97
2018-05-07T05:10:37.855Z,5.00
2018-05-07T05:13:05.344Z,6.00
2018-05-07T05:15:33.616Z,5.20
2018-05-07T05:18:01.873Z,5.07
2018-05-07T05:20:29.388Z,5.40
2018-05-07T05:22:56.904Z,4.77
2018-05-07T05:25:25.168Z,5.30
2018-05-07T05:27:52.661Z,6.70
2018-05-07T05:30:20.165Z,5.67
2018-05-07T05:32:47.657Z,4.87
2018-05-07T05:35:15.929Z,5.53
2018-05-07T05:37:44.188Z,5.00
2018-05-07T05:40:11.696Z,5.47
2018-05-07T05:42:39.189Z,5.07
2018-05-07T05:45:06.700Z,5.40
2018-05-07T05:47:34.188Z,5.40
2018-05-07T05:50:01.822Z,5.60
2018-05-07T05:52:29.278Z,5.27
2018-05-07T05:54:56.828Z,5.43
2018-05-07T05:57:24.320Z,4.87
2018-05-07T05:59:51.844Z,5.17
2018-05-07T06:02:20.101Z,5.20
2018-05-07T06:04:48.377Z,4.50
2018-05-07T06:07:16.636Z,5.03
2018-05-07T06:09:44.147Z,4.47
2018-05-07T06:12:11.687Z,4.53
2018-05-07T06:14:39.331Z,4.87
2018-05-07T06:17:06.808Z,5.10
2018-05-07T06:19:34.369Z,4.87
2018-05-07T06:22:01.861Z,4.40
2018-05-07T06:24:29.372Z,4.50
2018-05-07T06:26:57.632Z,4.70
2018-05-07T06:29:25.213Z,4.57
2018-05-07T06:31:53.476Z,4.87
2018-05-07T06:34:21.859Z,4.70
2018-05-07T06:36:49.336Z,4.20
2018-05-07T06:39:16.848Z,4.43
2018-05-07T06:41:44.344Z,4.70
2018-05-07T06:44:11.872Z,4.50
2018-05-07T06:46:39.367Z,4.70
2018-05-07T06:49:06.945Z,4.53
2018-05-07T06:51:34.497Z,4.00
2018-05-07T06:54:02.008Z,3.97
2018-05-07T06:56:29.500Z,4.00
2018-05-07T06:58:57.000Z,4.73
2018-05-07T07:01:24.529Z,4.20
2018-05-07T07:03:52.064Z,3.67
2018-05-07T07:06:20.332Z,4.33
2018-05-07T07:08:48.593Z,4.30
2018-05-07T07:11:16.189Z,4.93
2018-05-07T07:13:43.746Z,4.10
2018-05-07T07:16:11.261Z,3.57
2018-05-07T07:18:38.764Z,3.97
2018-05-07T07:21:06.276Z,4.00
2018-05-07T07:23:33.877Z,3.87
2018-05-07T07:26:01.376Z,3.73
2018-05-07T07:28:28.872Z,4.30
2018-05-07T07:30:57.156Z,4.57
2018-05-07T07:33:25.417Z,3.90
2018-05-07T07:35:52.993Z,4.30
2018-05-07T07:38:20.432Z,4.17
2018-05-07T07:40:47.945Z,3.80
2018-05-07T07:43:15.443Z,4.13
2018-05-07T07:45:42.955Z,3.97
2018-05-07T07:48:10.449Z,4.33
2018-05-07T07:50:37.964Z,4.50
2018-05-07T07:53:05.460Z,3.50
2018-05-07T07:55:32.968Z,4.60
2018-05-07T07:58:00.456Z,3.90
2018-05-07T08:00:27.964Z,3.90
2018-05-07T08:02:56.224Z,4.10
2018-05-07T08:05:23.737Z,4.23
2018-05-07T08:07:51.233Z,4.10
2018-05-07T08:10:18.740Z,3.93
2018-05-07T08:12:46.238Z,3.90
2018-05-07T08:15:13.750Z,3.93
2018-05-07T08:17:41.253Z,5.17
2018-05-07T08:20:08.765Z,4.30
2018-05-07T08:22:36.341Z,5.03
2018-05-07T08:25:03.881Z,3.33
2018-05-07T08:27:31.372Z,3.70
2018-05-07T08:29:58.884Z,3.63
2018-05-07T08:32:27.168Z,4.10
2018-05-07T08:34:54.681Z,3.70
2018-05-07T08:37:22.177Z,3.70
2018-05-07T08:39:50.449Z,4.40
2018-05-07T08:42:18.761Z,3.70
2018-05-07T08:44:47.005Z,3.73
2018-05-07T08:47:15.264Z,3.90
2018-05-07T08:49:42.789Z,3.93
2018-05-07T08:52:10.281Z,3.90
2018-05-07T08:54:37.809Z,3.90
2018-05-07T08:57:05.305Z,3.73
2018-05-07T08:59:33.556Z,3.90
2018-05-07T09:02:01.119Z,3.60
2018-05-07T09:04:28.580Z,3.50
2018-05-07T09:06:56.104Z,3.70
2018-05-07T09:09:23.601Z,4.07
2018-05-07T09:11:51.112Z,3.57
2018-05-07T09:14:18.605Z,3.57
2018-05-07T09:16:46.113Z,3.10
2018-05-07T09:19:13.608Z,3.70
2018-05-07T09:21:41.116Z,3.60
2018-05-07T09:24:08.610Z,3.43
2018-05-07T09:26:36.141Z,3.70
2018-05-07T09:29:03.649Z,3.70
2018-05-07T09:31:31.169Z,3.43
2018-05-07T09:33:58.663Z,3.50
2018-05-07T09:36:26.177Z,3.50
2018-05-07T09:38:53.673Z,3.60
2018-05-07T09:41:21.177Z,3.47
2018-05-07T09:43:49.668Z,4.40
2018-05-07T09:46:17.224Z,3.43
2018-05-07T09:48:44.716Z,3.40
2018-05-07T09:51:12.228Z,4.00
2018-05-07T09:53:40.489Z,4.00
2018-05-07T09:56:07.991Z,3.77
2018-05-07T09:58:35.488Z,3.90
2018-05-07T10:01:03.001Z,3.57
2018-05-07T10:03:30.501Z,3.60
2018-05-07T10:05:58.013Z,3.50
2018-05-07T10:08:25.504Z,3.60
2018-05-07T10:10:53.012Z,3.63
2018-05-07T10:13:21.272Z,4.10
2018-05-07T10:15:48.781Z,3.93
2018-05-07T10:18:16.283Z,3.67
2018-05-07T10:20:43.804Z,4.03
2018-05-07T10:23:11.304Z,3.80
2018-05-07T10:25:39.584Z,4.60
2018-05-07T10:28:07.844Z,4.23
2018-05-07T10:30:35.360Z,4.10
2018-05-07T10:33:02.852Z,4.47
2018-05-07T10:35:30.361Z,4.10
2018-05-07T10:37:57.852Z,4.30
2018-05-07T10:40:25.364Z,4.37
2018-05-07T10:42:53.624Z,4.40
2018-05-07T10:45:21.900Z,4.50
2018-05-07T10:47:50.160Z,3.73
2018-05-07T10:50:17.652Z,4.57
2018-05-07T10:52:45.167Z,4.67
2018-05-07T10:55:12.660Z,4.27
2018-05-07T10:57:40.936Z,4.03
2018-05-07T11:00:09.192Z,4.27
2018-05-07T11:02:36.701Z,4.37
2018-05-07T11:05:04.197Z,4.67
2018-05-07T11:07:31.705Z,4.90
2018-05-07T11:09:59.197Z,4.33
2018-05-07T11:12:26.700Z,4.80
2018-05-07T11:14:54.968Z,4.97
2018-05-07T11:17:23.240Z,4.47
2018-05-07T11:19:51.578Z,4.67
2018-05-07T11:22:19.817Z,4.40
2018-05-07T11:24:47.308Z,5.40
2018-05-07T11:27:14.821Z,5.00
2018-05-07T11:29:43.080Z,4.50
2018-05-07T11:32:10.631Z,5.67
2018-05-07T11:34:38.125Z,4.23
2018-05-07T11:37:05.640Z,4.97
2018-05-07T11:39:33.137Z,5.33
2018-05-07T11:42:00.644Z,5.07
2018-05-07T11:44:28.159Z,4.83
2018-05-07T11:46:55.673Z,5.17
2018-05-07T11:49:23.164Z,5.50
2018-05-07T11:51:51.440Z,4.23
2018-05-07T11:54:19.699Z,4.47
2018-05-07T11:56:47.977Z,5.70
2018-05-07T11:59:16.236Z,4.97
2018-05-07T12:01:43.748Z,3.70
2018-05-07T12:04:11.240Z,4.60
2018-05-07T12:06:38.758Z,4.80
2018-05-07T12:09:06.292Z,4.03
2018-05-07T12:11:33.792Z,4.60
2018-05-07T12:14:01.289Z,4.00
2018-05-07T12:16:28.804Z,4.17
2018-05-07T12:18:56.317Z,4.00
2018-05-07T12:21:24.592Z,3.80
2018-05-07T12:23:52.848Z,3.90
2018-05-07T12:26:20.355Z,4.20
2018-05-07T12:28:47.848Z,4.10
2018-05-07T12:31:15.366Z,4.30
2018-05-07T12:33:42.871Z,3.90
2018-05-07T12:36:10.376Z,4.20
2018-05-07T12:38:38.641Z,4.30
2018-05-07T12:41:06.912Z,4.30
2018-05-07T12:43:35.184Z,4.20
2018-05-07T12:46:02.698Z,4.87
2018-05-07T12:48:30.193Z,4.03
2018-05-07T12:50:57.688Z,4.33
2018-05-07T12:53:25.196Z,4.10
2018-05-07T12:55:52.689Z,4.07
2018-05-07T12:58:20.964Z,3.37
2018-05-07T13:00:49.224Z,4.07
2018-05-07T13:03:17.500Z,3.97
2018-05-07T13:05:45.046Z,4.10
2018-05-07T13:08:12.533Z,3.60
2018-05-07T13:10:40.796Z,3.50
2018-05-07T13:13:09.124Z,3.60
2018-05-07T13:15:36.625Z,4.20
2018-05-07T13:18:04.137Z,3.47
2018-05-07T13:20:31.633Z,5.10
2018-05-07T13:22:59.145Z,3.63
2018-05-07T13:25:26.640Z,3.57
2018-05-07T13:27:54.148Z,3.53
2018-05-07T13:30:21.641Z,3.80
2018-05-07T13:32:49.151Z,3.90
2018-05-07T13:35:17.408Z,3.90
2018-05-07T13:37:44.919Z,3.90
2018-05-07T13:40:12.404Z,3.53
2018-05-07T13:42:39.916Z,4.07
2018-05-07T13:45:07.404Z,3.90
2018-05-07T13:47:34.920Z,3.83
2018-05-07T13:50:02.413Z,3.40
2018-05-07T13:52:29.920Z,3.63
2018-05-07T13:54:58.180Z,3.60
2018-05-07T13:57:25.685Z,3.73
2018-05-07T13:59:53.189Z,3.90
2018-05-07T14:02:20.702Z,2.90
2018-05-07T14:04:48.201Z,3.43
2018-05-07T14:07:15.713Z,3.17
2018-05-07T14:09:43.212Z,3.93
2018-05-07T14:12:10.721Z,3.57
2018-05-07T14:14:38.256Z,3.70
2018-05-07T14:17:05.740Z,3.40
2018-05-07T14:19:33.227Z,3.07
2018-05-07T14:22:00.737Z,3.43
2018-05-07T14:24:28.997Z,2.90
2018-05-07T14:26:56.504Z,3.20
2018-05-07T14:29:23.999Z,2.90
2018-05-07T14:31:51.509Z,3.03
2018-05-07T14:34:19.006Z,3.00
2018-05-07T14:36:46.517Z,3.23
2018-05-07T14:39:14.244Z,3.30
2018-05-07T14:41:41.765Z,3.73
2018-05-07T14:44:09.262Z,3.57
2018-05-07T14:46:36.761Z,3.20
2018-05-07T14:49:04.268Z,3.80
2018-05-07T14:51:31.760Z,4.00
2018-05-07T14:54:00.048Z,3.33
2018-05-07T14:56:27.548Z,3.43
2018-05-07T14:58:55.060Z,3.97
2018-05-07T15:01:22.552Z,3.67
2018-05-07T15:03:50.061Z,3.37
2018-05-07T15:06:18.312Z,4.00
2018-05-07T15:08:45.813Z,4.20
2018-05-07T15:11:13.305Z,3.33
2018-05-07T15:13:40.873Z,3.17
2018-05-07T15:16:08.327Z,3.17
2018-05-07T15:18:35.831Z,3.90
2018-05-07T15:21:04.100Z,3.60
2018-05-07T15:23:32.380Z,3.70
2018-05-07T15:26:00.879Z,3.37
2018-05-07T15:28:28.397Z,4.57
2018-05-07T15:30:55.897Z,3.20
2018-05-07T15:33:23.407Z,3.57
2018-05-07T15:35:50.900Z,3.87
2018-05-07T15:38:19.180Z,3.77
2018-05-07T15:40:47.448Z,3.30
2018-05-07T15:43:15.723Z,3.73
2018-05-07T15:45:43.984Z,3.60
2018-05-07T15:48:12.265Z,3.90
2018-05-07T15:50:40.565Z,3.73
2018-05-07T15:53:08.124Z,4.10
2018-05-07T15:55:35.687Z,4.20
2018-05-07T15:58:03.196Z,4.40
2018-05-07T16:00:30.801Z,3.60
2018-05-07T16:02:58.369Z,3.70
2018-05-07T16:05:25.829Z,4.20
2018-05-07T16:07:53.372Z,3.80
2018-05-07T16:10:20.936Z,3.63
2018-05-07T16:12:48.448Z,3.60
2018-05-07T16:15:15.997Z,4.10
2018-05-07T16:17:43.469Z,3.47
2018-05-07T16:20:10.965Z,3.93
2018-05-07T16:22:38.524Z,3.80
2018-05-07T16:25:06.017Z,3.67
2018-05-07T16:27:33.541Z,4.67
2018-05-07T16:30:01.037Z,3.60
2018-05-07T16:32:28.533Z,3.67
2018-05-07T16:34:56.052Z,3.70
2018-05-07T16:37:23.548Z,3.50
2018-05-07T16:39:51.832Z,4.50
2018-05-07T16:42:20.093Z,3.80
2018-05-07T16:44:47.689Z,3.53
2018-05-07T16:47:15.185Z,3.67
2018-05-07T16:49:42.700Z,3.50
2018-05-07T16:52:10.196Z,3.93
2018-05-07T16:54:37.705Z,3.60
2018-05-07T16:57:05.968Z,3.50
2018-05-07T16:59:33.480Z,4.10
2018-05-07T17:02:00.992Z,3.60
2018-05-07T17:04:29.506Z,4.53
2018-05-07T17:06:56.775Z,3.70
2018-05-07T17:09:24.296Z,3.73
2018-05-07T17:11:52.911Z,3.07
2018-05-07T17:14:21.257Z,3.30
2018-05-07T17:16:49.518Z,3.77
2018-05-07T17:19:17.804Z,3.40
2018-05-07T17:21:46.065Z,3.47
2018-05-07T17:24:13.658Z,3.23
2018-05-07T17:26:41.212Z,3.70
2018-05-07T17:29:08.728Z,3.27
2018-05-07T17:31:36.324Z,4.00
2018-05-07T17:34:04.823Z,4.30
2018-05-07T17:36:32.112Z,4.00
2018-05-07T17:38:59.620Z,3.40
2018-05-07T17:41:27.191Z,4.10
2018-05-07T17:43:54.744Z,3.50
2018-05-07T17:46:34.213Z,3.60
2018-05-07T17:49:01.725Z,3.90
2018-05-07T17:51:29.984Z,4.67
2018-05-07T17:53:57.492Z,3.33
2018-05-07T17:56:24.988Z,3.77
2018-05-07T17:58:52.504Z,3.50
2018-05-07T18:01:19.996Z,3.83
2018-05-07T18:03:47.502Z,3.67
2018-05-07T18:06:14.992Z,3.53
2018-05-07T18:08:42.496Z,3.80
2018-05-07T18:11:10.756Z,3.93
2018-05-07T18:13:38.253Z,3.57
2018-05-07T18:16:05.760Z,3.60
2018-05-07T18:18:33.253Z,3.80
2018-05-07T18:21:01.525Z,4.10
2018-05-07T18:23:29.789Z,3.50
2018-05-07T18:25:57.621Z,3.50
2018-05-07T18:28:25.125Z,3.50
2018-05-07T18:30:53.401Z,4.30
2018-05-07T18:33:21.661Z,3.40
2018-05-07T18:35:49.169Z,3.60
2018-05-07T18:38:16.661Z,4.03
2018-05-07T18:40:44.172Z,3.93
2018-05-07T18:43:11.664Z,3.80
2018-05-07T18:45:39.173Z,3.80
2018-05-07T18:48:07.429Z,4.80
2018-05-07T18:50:34.936Z,4.53
2018-05-07T18:53:02.429Z,5.00
2018-05-07T18:55:29.944Z,3.60
2018-05-07T18:57:57.435Z,4.27
2018-05-07T19:00:26.210Z,4.43
2018-05-07T19:02:53.709Z,3.93
2018-05-07T19:05:21.214Z,3.97
2018-05-07T19:07:48.757Z,4.40
2018-05-07T19:10:16.279Z,4.10
2018-05-07T19:12:43.870Z,3.90
2018-05-07T19:15:11.381Z,4.03
2018-05-07T19:17:38.873Z,4.17
2018-05-07T19:20:07.160Z,3.80
2018-05-07T19:22:34.718Z,3.83
2018-05-07T19:25:02.281Z,4.30
2018-05-07T19:27:29.832Z,4.17
2018-05-07T19:29:58.202Z,4.13
2018-05-07T19:32:25.678Z,3.97
2018-05-07T19:34:53.193Z,4.13
2018-05-07T19:37:20.692Z,4.07
2018-05-07T19:39:48.205Z,4.20
2018-05-07T19:42:15.700Z,4.40
2018-05-07T19:44:43.972Z,3.90
2018-05-07T19:47:12.255Z,3.70
2018-05-07T19:49:39.820Z,3.90
2018-05-07T19:52:07.311Z,3.97
2018-05-07T19:54:34.832Z,3.73
2018-05-07T19:57:02.320Z,4.50
2018-05-07T19:59:29.808Z,4.10
2018-05-07T20:01:57.317Z,4.03
2018-05-07T20:04:24.811Z,4.33
2018-05-07T20:06:52.420Z,3.77
2018-05-07T20:09:20.681Z,3.60
2018-05-07T20:11:48.964Z,3.30
2018-05-07T20:14:17.292Z,3.90
2018-05-07T20:16:45.525Z,3.87
2018-05-07T20:19:14.052Z,4.07
2018-05-07T20:21:41.573Z,4.30
2018-05-07T20:24:09.084Z,4.10
2018-05-07T20:26:36.616Z,4.53
2018-05-07T20:29:04.119Z,4.30
2018-05-07T20:31:32.400Z,3.83
2018-05-07T20:34:00.680Z,4.10
2018-05-07T20:36:28.967Z,4.37
2018-05-07T20:38:57.274Z,4.67
2018-05-07T20:41:24.780Z,4.60
2018-05-07T20:43:53.050Z,4.23
2018-05-07T20:46:20.645Z,4.47
2018-05-07T20:48:48.141Z,3.90
2018-05-07T20:51:15.760Z,4.50
2018-05-07T20:53:43.257Z,5.10
2018-05-07T20:56:10.767Z,4.30
2018-05-07T20:58:39.032Z,4.43
2018-05-07T21:01:07.304Z,6.23
2018-05-07T21:03:35.567Z,4.87
2018-05-07T21:06:03.161Z,4.70
2018-05-07T21:08:31.416Z,4.67
2018-05-07T21:10:59.696Z,4.50
2018-05-07T21:13:27.961Z,4.57
2018-05-07T21:15:56.241Z,4.77
2018-05-07T21:18:23.738Z,4.87
2018-05-07T21:20:51.253Z,4.20
2018-05-07T21:23:18.753Z,5.00
2018-05-07T21:25:46.265Z,4.77
2018-05-07T21:28:13.864Z,5.20
2018-05-07T21:30:41.395Z,4.67
2018-05-07T21:33:09.692Z,4.73
2018-05-07T21:35:37.211Z,4.33
2018-05-07T21:38:04.707Z,4.20
2018-05-07T21:40:32.273Z,4.23
2018-05-07T21:42:59.768Z,4.30
2018-05-07T21:45:27.280Z,4.70
2018-05-07T21:47:55.564Z,4.57
2018-05-07T21:50:23.076Z,5.00
2018-05-07T21:52:50.568Z,4.83
2018-05-07T21:55:18.853Z,4.90
2018-05-07T21:57:46.349Z,5.80
2018-05-07T22:00:13.842Z,5.70
2018-05-07T22:02:41.352Z,5.50
2018-05-07T22:05:08.848Z,5.70
2018-05-07T22:07:36.391Z,5.20
2018-05-07T22:10:03.885Z,5.40
2018-05-07T22:12:32.160Z,5.00
2018-05-07T22:15:00.424Z,6.07
2018-05-07T22:17:27.940Z,5.97
2018-05-07T22:19:55.432Z,5.60
2018-05-07T22:22:22.941Z,5.27
2018-05-07T22:24:50.433Z,6.13
2018-05-07T22:27:17.949Z,12.23
2018-05-07T22:29:45.444Z,7.20
2018-05-07T22:32:13.026Z,6.07
2018-05-07T22:34:40.465Z,7.13
2018-05-07T22:37:07.981Z,7.23
2018-05-07T22:39:35.482Z,8.57
2018-05-07T22:42:03.002Z,8.73
2018-05-07T22:44:30.554Z,8.00
2018-05-07T22:46:58.064Z,7.20
2018-05-07T22:49:25.561Z,6.70
2018-05-07T22:51:53.077Z,6.90
2018-05-07T22:54:20.577Z,7.20
2018-05-07T22:56:48.092Z,5.57
2018-05-07T22:59:15.588Z,6.53
2018-05-07T23:01:43.864Z,5.83
2018-05-07T23:04:12.133Z,4.97
2018-05-07T23:06:40.412Z,4.80
2018-05-07T23:09:08.671Z,4.80
2018-05-07T23:11:36.181Z,4.87
2018-05-07T23:14:03.680Z,5.13
2018-05-07T23:16:31.274Z,4.90
2018-05-07T23:18:58.832Z,4.63
2018-05-07T23:21:26.345Z,5.07
2018-05-07T23:23:53.836Z,4.10
2018-05-07T23:26:22.121Z,4.63
2018-05-07T23:28:49.637Z,4.60
2018-05-07T23:31:17.153Z,4.43
2018-05-07T23:33:44.700Z,4.57
2018-05-07T23:36:12.212Z,4.50
2018-05-07T23:38:39.720Z,4.60
2018-05-07T23:41:07.237Z,4.77
2018-05-07T23:43:34.724Z,4.50
2018-05-07T23:46:03.007Z,4.17
2018-05-07T23:48:30.501Z,3.70
2018-05-07T23:50:57.996Z,4.33
2018-05-07T23:53:25.508Z,4.20
2018-05-07T23:55:53.040Z,4.70
2018-05-07T23:58:20.557Z,3.73
